createdAt,value
2017-05-11T00:01:39.857Z,99344.23
2017-05-11T00:04:09.056Z,99342.08
2017-05-11T00:06:38.090Z,99338.41
2017-05-11T00:09:07.182Z,99335.81
2017-05-11T00:11:36.216Z,99336.32
2017-05-11T00:14:05.260Z,99328.61
2017-05-11T00:16:34.296Z,99332.34
2017-05-11T00:19:03.342Z,99323.25
2017-05-11T00:21:32.393Z,99322.86
2017-05-11T00:24:01.477Z,99320.70
2017-05-11T00:26:30.533Z,99316.45
2017-05-11T00:28:59.605Z,99313.66
2017-05-11T00:31:28.739Z,99307.59
2017-05-11T00:33:57.806Z,99307.65
2017-05-11T00:36:26.845Z,99297.59
2017-05-11T00:38:56.636Z,99304.38
2017-05-11T00:41:25.695Z,99295.00
2017-05-11T00:43:54.812Z,99289.33
2017-05-11T00:46:23.903Z,99286.42
2017-05-11T00:48:52.938Z,99282.30
2017-05-11T00:51:23.012Z,99278.75
2017-05-11T00:53:52.936Z,99269.09
2017-05-11T00:56:21.981Z,99271.02
2017-05-11T00:58:52.238Z,99266.73
2017-05-11T01:01:21.300Z,99266.45
2017-05-11T01:03:52.425Z,99265.72
2017-05-11T01:06:21.557Z,99261.86
2017-05-11T01:08:51.036Z,99260.13
2017-05-11T01:11:20.076Z,99260.64
2017-05-11T01:13:49.291Z,99250.34
2017-05-11T01:16:18.340Z,99258.78
2017-05-11T01:18:47.392Z,99250.91
2017-05-11T01:21:16.435Z,99245.97
2017-05-11T01:23:45.505Z,99246.51
2017-05-11T01:26:14.553Z,99236.58
2017-05-11T01:28:43.593Z,99230.16
2017-05-11T01:31:12.625Z,99237.77
2017-05-11T01:33:42.271Z,99226.86
2017-05-11T01:36:11.321Z,99229.73
2017-05-11T01:38:40.366Z,99225.05
2017-05-11T01:41:09.420Z,99223.27
2017-05-11T01:43:38.473Z,99222.09
2017-05-11T01:46:07.529Z,99221.41
2017-05-11T01:48:36.571Z,99211.56
2017-05-11T01:51:05.617Z,99211.52
2017-05-11T01:53:34.657Z,99200.23
2017-05-11T01:56:03.693Z,99204.38
2017-05-11T01:58:32.949Z,99197.10
2017-05-11T02:01:02.019Z,99192.84
2017-05-11T02:03:31.056Z,99193.58
2017-05-11T02:06:00.091Z,99190.56
2017-05-11T02:08:29.380Z,99188.11
2017-05-11T02:10:58.733Z,99186.42
2017-05-11T02:13:27.769Z,99185.23
2017-05-11T02:15:56.809Z,99175.50
2017-05-11T02:18:25.868Z,99184.55
2017-05-11T02:20:54.946Z,99180.12
2017-05-11T02:23:24.016Z,99176.42
2017-05-11T02:25:53.090Z,99168.80
2017-05-11T02:28:22.130Z,99163.95
2017-05-11T02:30:51.192Z,99167.33
2017-05-11T02:33:20.236Z,99166.71
2017-05-11T02:35:49.267Z,99157.80
2017-05-11T02:38:18.334Z,99161.92
2017-05-11T02:40:47.381Z,99159.11
2017-05-11T02:43:16.496Z,99155.45
2017-05-11T02:45:45.552Z,99152.03
2017-05-11T02:48:14.612Z,99150.62
2017-05-11T02:50:43.689Z,99144.98
2017-05-11T02:53:12.726Z,99145.63
2017-05-11T02:55:41.782Z,99141.06
2017-05-11T02:58:10.825Z,99133.02
2017-05-11T03:00:39.872Z,99129.20
2017-05-11T03:03:08.930Z,99126.84
2017-05-11T03:05:37.996Z,99127.41
2017-05-11T03:08:07.070Z,99122.63
2017-05-11T03:10:36.110Z,99123.02
2017-05-11T03:13:05.922Z,99113.34
2017-05-11T03:15:35.735Z,99107.81
2017-05-11T03:18:05.541Z,99117.05
2017-05-11T03:20:34.640Z,99109.78
2017-05-11T03:23:04.512Z,99111.55
2017-05-11T03:25:34.853Z,99107.14
2017-05-11T03:28:03.915Z,99105.70
2017-05-11T03:30:32.953Z,99098.20
2017-05-11T03:33:02.053Z,99099.61
2017-05-11T03:35:31.093Z,99099.16
2017-05-11T03:38:00.331Z,99094.37
2017-05-11T03:40:29.416Z,99099.16
2017-05-11T03:42:58.464Z,99096.63
2017-05-11T03:45:28.240Z,99094.94
2017-05-11T03:47:57.313Z,99089.31
2017-05-11T03:50:26.357Z,99094.55
2017-05-11T03:52:56.136Z,99096.02
2017-05-11T03:55:25.203Z,99080.77
2017-05-11T03:57:54.283Z,99077.72
2017-05-11T04:00:23.360Z,99071.25
2017-05-11T04:02:53.137Z,99075.20
2017-05-11T04:05:22.220Z,99066.23
2017-05-11T04:07:51.272Z,99068.50
2017-05-11T04:10:20.333Z,99066.13
2017-05-11T04:12:49.386Z,99061.27
2017-05-11T04:15:18.431Z,99061.67
2017-05-11T04:17:48.482Z,99064.11
2017-05-11T04:20:17.521Z,99065.05
2017-05-11T04:22:46.599Z,99051.70
2017-05-11T04:25:15.668Z,99048.82
2017-05-11T04:27:44.700Z,99058.86
2017-05-11T04:30:13.752Z,99049.23
2017-05-11T04:32:43.326Z,99048.87
2017-05-11T04:35:12.617Z,99043.41
2017-05-11T04:37:41.993Z,99048.46
2017-05-11T04:40:11.057Z,99052.97
2017-05-11T04:42:40.112Z,99043.98
2017-05-11T04:45:10.054Z,99043.48
2017-05-11T04:47:39.839Z,99042.23
2017-05-11T04:50:09.104Z,99037.45
2017-05-11T04:52:38.165Z,99040.95
2017-05-11T04:55:07.246Z,99035.56
2017-05-11T04:57:37.032Z,99038.44
2017-05-11T05:00:06.075Z,99034.78
2017-05-11T05:02:35.127Z,99031.05
2017-05-11T05:05:04.210Z,99034.89
2017-05-11T05:07:33.252Z,99030.44
2017-05-11T05:10:02.326Z,99037.78
2017-05-11T05:12:31.372Z,99030.45
2017-05-11T05:15:00.408Z,99031.80
2017-05-11T05:17:29.597Z,99026.86
2017-05-11T05:19:58.677Z,99035.34
2017-05-11T05:22:27.721Z,99021.47
2017-05-11T05:24:57.607Z,99026.11
2017-05-11T05:27:26.684Z,99025.56
2017-05-11T05:29:55.718Z,99029.95
2017-05-11T05:32:25.516Z,99020.70
2017-05-11T05:34:54.587Z,99030.38
2017-05-11T05:37:23.643Z,99031.35
2017-05-11T05:39:52.715Z,99028.65
2017-05-11T05:42:22.765Z,99022.72
2017-05-11T05:44:52.564Z,99022.20
2017-05-11T05:47:21.613Z,99027.05
2017-05-11T05:49:50.732Z,99025.68
2017-05-11T05:52:20.516Z,99021.69
2017-05-11T05:54:49.553Z,99016.52
2017-05-11T05:57:18.865Z,99012.56
2017-05-11T05:59:47.953Z,99014.05
2017-05-11T06:02:17.017Z,99015.97
2017-05-11T06:04:46.090Z,99011.20
2017-05-11T06:07:15.140Z,99015.84
2017-05-11T06:09:44.196Z,99012.69
2017-05-11T06:12:13.255Z,99010.58
2017-05-11T06:14:42.313Z,99008.65
2017-05-11T06:17:12.453Z,99006.66
2017-05-11T06:19:41.495Z,99000.56
2017-05-11T06:22:10.537Z,99003.59
2017-05-11T06:24:39.597Z,98999.92
2017-05-11T06:27:08.653Z,98991.44
2017-05-11T06:29:37.708Z,99006.53
2017-05-11T06:32:07.498Z,98998.45
2017-05-11T06:34:36.555Z,99001.24
2017-05-11T06:37:05.621Z,98996.31
2017-05-11T06:39:34.683Z,99000.56
2017-05-11T06:42:03.729Z,98998.87
2017-05-11T06:44:32.806Z,98990.31
2017-05-11T06:47:01.870Z,98981.87
2017-05-11T06:49:30.920Z,98979.20
2017-05-11T06:52:00.029Z,98980.16
2017-05-11T06:54:29.081Z,98970.23
2017-05-11T06:56:58.165Z,98975.06
2017-05-11T06:59:27.971Z,98973.79
2017-05-11T07:01:58.137Z,98969.61
2017-05-11T07:04:27.212Z,98963.34
2017-05-11T07:06:56.861Z,98965.48
2017-05-11T07:09:26.129Z,98965.80
2017-05-11T07:11:55.193Z,98966.47
2017-05-11T07:14:25.073Z,98961.12
2017-05-11T07:16:54.163Z,98955.91
2017-05-11T07:19:23.204Z,98956.55
2017-05-11T07:21:53.050Z,98958.92
2017-05-11T07:24:22.242Z,98957.99
2017-05-11T07:26:51.462Z,98960.15
2017-05-11T07:29:20.534Z,98960.77
2017-05-11T07:31:50.050Z,98958.60
2017-05-11T07:34:19.125Z,98954.49
2017-05-11T07:36:48.323Z,98958.01
2017-05-11T07:39:17.726Z,98950.95
2017-05-11T07:41:46.777Z,98951.48
2017-05-11T07:44:15.833Z,98950.30
2017-05-11T07:46:44.878Z,98951.00
2017-05-11T07:49:13.926Z,98937.66
2017-05-11T07:51:42.978Z,98939.17
2017-05-11T07:54:12.951Z,98939.06
2017-05-11T07:56:42.111Z,98934.86
2017-05-11T07:59:11.209Z,98931.12
2017-05-11T08:01:40.277Z,98918.03
2017-05-11T08:04:10.164Z,98913.00
2017-05-11T08:06:39.218Z,98909.94
2017-05-11T08:09:08.293Z,98909.55
2017-05-11T08:11:38.095Z,98915.70
2017-05-11T08:14:07.895Z,98918.81
2017-05-11T08:16:37.703Z,98919.01
2017-05-11T08:19:06.757Z,98916.25
2017-05-11T08:21:35.821Z,98912.81
2017-05-11T08:24:05.621Z,98917.39
2017-05-11T08:26:35.426Z,98908.49
2017-05-11T08:29:04.494Z,98903.71
2017-05-11T08:31:33.560Z,98906.16
2017-05-11T08:34:02.637Z,98905.80
2017-05-11T08:36:32.426Z,98898.52
2017-05-11T08:39:01.491Z,98903.53
2017-05-11T08:41:30.539Z,98901.30
2017-05-11T08:44:00.097Z,98902.95
2017-05-11T08:46:29.156Z,98900.27
2017-05-11T08:48:58.561Z,98892.85
2017-05-11T08:51:27.612Z,98885.22
2017-05-11T08:53:56.652Z,98883.63
2017-05-11T08:56:25.720Z,98892.95
2017-05-11T08:58:55.521Z,98886.30
2017-05-11T09:01:25.349Z,98884.69
2017-05-11T09:03:55.134Z,98888.95
2017-05-11T09:06:24.966Z,98880.08
2017-05-11T09:08:54.757Z,98883.77
2017-05-11T09:11:23.805Z,98885.45
2017-05-11T09:13:52.925Z,98881.63
2017-05-11T09:16:21.974Z,98878.09
2017-05-11T09:18:52.277Z,98875.10
2017-05-11T09:21:21.321Z,98865.63
2017-05-11T09:23:50.447Z,98864.95
2017-05-11T09:26:19.700Z,98871.02
2017-05-11T09:28:48.777Z,98864.28
2017-05-11T09:31:18.577Z,98864.84
2017-05-11T09:33:47.644Z,98867.98
2017-05-11T09:36:16.697Z,98864.67
2017-05-11T09:38:45.736Z,98863.69
2017-05-11T09:41:14.785Z,98860.73
2017-05-11T09:43:44.045Z,98862.48
2017-05-11T09:46:13.129Z,98859.69
2017-05-11T09:48:42.204Z,98855.45
2017-05-11T09:51:11.240Z,98854.48
2017-05-11T09:53:40.339Z,98852.10
2017-05-11T09:56:10.153Z,98848.80
2017-05-11T09:58:39.971Z,98846.98
2017-05-11T10:01:09.792Z,98843.75
2017-05-11T10:03:39.609Z,98849.77
2017-05-11T10:06:08.688Z,98839.95
2017-05-11T10:08:38.494Z,98841.05
2017-05-11T10:11:07.555Z,98833.55
2017-05-11T10:13:36.633Z,98826.79
2017-05-11T10:16:05.692Z,98829.66
2017-05-11T10:18:35.479Z,98824.73
2017-05-11T10:21:04.525Z,98821.36
2017-05-11T10:23:33.559Z,98819.05
2017-05-11T10:26:02.601Z,98814.89
2017-05-11T10:28:31.655Z,98804.30
2017-05-11T10:31:00.729Z,98805.83
2017-05-11T10:33:29.789Z,98797.79
2017-05-11T10:35:59.042Z,98799.14
2017-05-11T10:38:28.097Z,98804.30
2017-05-11T10:40:57.176Z,98800.86
2017-05-11T10:43:26.225Z,98794.88
2017-05-11T10:45:55.307Z,98801.02
2017-05-11T10:48:24.342Z,98791.78
2017-05-11T10:50:54.133Z,98787.65
2017-05-11T10:53:23.489Z,98786.88
2017-05-11T10:55:52.621Z,98790.32
2017-05-11T10:58:21.714Z,98781.86
2017-05-11T11:00:51.217Z,98774.91
2017-05-11T11:03:20.268Z,98773.79
2017-05-11T11:05:50.348Z,98770.09
2017-05-11T11:08:19.415Z,98764.38
2017-05-11T11:10:48.493Z,98765.38
2017-05-11T11:13:17.535Z,98757.69
2017-05-11T11:15:46.805Z,98758.73
2017-05-11T11:18:15.856Z,98755.09
2017-05-11T11:20:44.895Z,98751.65
2017-05-11T11:23:13.939Z,98754.38
2017-05-11T11:25:43.015Z,98755.10
2017-05-11T11:28:12.070Z,98752.45
2017-05-11T11:30:41.107Z,98746.03
2017-05-11T11:33:10.180Z,98744.49
2017-05-11T11:35:39.226Z,98747.12
2017-05-11T11:38:08.290Z,98750.70
2017-05-11T11:40:37.340Z,98748.95
2017-05-11T11:43:06.389Z,98739.70
2017-05-11T11:45:35.463Z,98743.41
2017-05-11T11:48:04.509Z,98742.58
2017-05-11T11:50:33.565Z,98736.17
2017-05-11T11:53:02.635Z,98729.30
2017-05-11T11:55:31.697Z,98729.86
2017-05-11T11:58:00.742Z,98728.21
2017-05-11T12:00:29.796Z,98729.14
2017-05-11T12:02:58.868Z,98725.66
2017-05-11T12:05:27.925Z,98731.35
2017-05-11T12:07:56.964Z,98723.80
2017-05-11T12:10:26.012Z,98729.41
2017-05-11T12:12:55.057Z,98718.00
2017-05-11T12:15:24.334Z,98722.53
2017-05-11T12:17:53.394Z,98721.14
2017-05-11T12:20:22.463Z,98726.09
2017-05-11T12:22:51.516Z,98723.01
2017-05-11T12:25:20.595Z,98719.45
2017-05-11T12:27:49.728Z,98719.18
2017-05-11T12:30:19.058Z,98710.81
2017-05-11T12:32:48.265Z,98716.44
2017-05-11T12:35:17.342Z,98713.31
2017-05-11T12:37:46.421Z,98717.52
2017-05-11T12:40:15.490Z,98711.03
2017-05-11T12:42:44.537Z,98712.42
2017-05-11T12:45:13.582Z,98714.39
2017-05-11T12:47:42.641Z,98707.95
2017-05-11T12:50:11.765Z,98708.26
2017-05-11T12:52:40.821Z,98706.09
2017-05-11T12:55:09.866Z,98699.25
2017-05-11T12:57:38.938Z,98703.70
2017-05-11T13:00:08.004Z,98707.48
2017-05-11T13:02:37.066Z,98710.34
2017-05-11T13:05:06.145Z,98701.81
2017-05-11T13:07:35.193Z,98702.01
2017-05-11T13:10:04.226Z,98703.16
2017-05-11T13:12:33.280Z,98708.63
2017-05-11T13:15:02.342Z,98699.80
2017-05-11T13:17:31.418Z,98701.88
2017-05-11T13:20:00.502Z,98699.48
2017-05-11T13:22:29.564Z,98703.44
2017-05-11T13:24:58.716Z,98698.02
2017-05-11T13:27:27.832Z,98703.03
2017-05-11T13:29:56.882Z,98698.82
2017-05-11T13:32:25.968Z,98692.55
2017-05-11T13:34:55.025Z,98689.31
2017-05-11T13:37:24.124Z,98695.55
2017-05-11T13:39:53.171Z,98689.64
2017-05-11T13:42:22.242Z,98687.08
2017-05-11T13:44:51.320Z,98671.54
2017-05-11T13:47:20.370Z,98668.87
2017-05-11T13:49:49.452Z,98673.45
2017-05-11T13:52:18.506Z,98679.64
2017-05-11T13:54:47.565Z,98676.54
2017-05-11T13:57:16.635Z,98671.52
2017-05-11T13:59:45.725Z,98670.17
2017-05-11T14:02:14.786Z,98667.23
2017-05-11T14:04:43.850Z,98668.42
2017-05-11T14:07:12.923Z,98656.95
2017-05-11T14:09:41.985Z,98656.36
2017-05-11T14:12:11.130Z,98662.25
2017-05-11T14:14:40.192Z,98655.41
2017-05-11T14:17:09.268Z,98660.86
2017-05-11T14:19:38.306Z,98655.89
2017-05-11T14:22:07.382Z,98654.12
2017-05-11T14:24:36.445Z,98649.84
2017-05-11T14:27:05.509Z,98649.15
2017-05-11T14:29:34.573Z,98648.06
2017-05-11T14:32:03.660Z,98639.38
2017-05-11T14:34:32.728Z,98639.24
2017-05-11T14:37:01.788Z,98629.38
2017-05-11T14:39:30.835Z,98629.36
2017-05-11T14:41:59.906Z,98634.45
2017-05-11T14:44:28.961Z,98630.20
2017-05-11T14:46:58.022Z,98629.20
2017-05-11T14:49:27.071Z,98628.32
2017-05-11T14:51:56.133Z,98624.55
2017-05-11T14:54:25.198Z,98621.58
2017-05-11T14:56:54.314Z,98619.09
2017-05-11T14:59:23.387Z,98622.00
2017-05-11T15:01:52.693Z,98614.41
2017-05-11T15:04:21.753Z,98613.65
2017-05-11T15:06:51.405Z,98613.73
2017-05-11T15:09:20.688Z,98612.02
2017-05-11T15:11:50.144Z,98611.92
2017-05-11T15:14:19.218Z,98607.59
2017-05-11T15:16:48.276Z,98609.38
2017-05-11T15:19:17.352Z,98608.17
2017-05-11T15:21:46.409Z,98606.94
2017-05-11T15:24:15.446Z,98603.84
2017-05-11T15:26:44.516Z,98597.87
2017-05-11T15:29:13.594Z,98596.44
2017-05-11T15:31:42.632Z,98592.35
2017-05-11T15:34:11.693Z,98590.77
2017-05-11T15:36:40.781Z,98589.59
2017-05-11T15:39:09.838Z,98592.80
2017-05-11T15:41:38.885Z,98594.98
2017-05-11T15:44:07.932Z,98589.32
2017-05-11T15:46:37.205Z,98579.45
2017-05-11T15:49:06.275Z,98582.27
2017-05-11T15:51:35.321Z,98581.61
2017-05-11T15:54:04.429Z,98581.72
2017-05-11T15:56:33.485Z,98581.42
2017-05-11T15:59:02.542Z,98577.60
2017-05-11T16:01:33.966Z,98580.19
2017-05-11T16:04:03.017Z,98577.91
2017-05-11T16:06:32.118Z,98575.55
2017-05-11T16:09:01.169Z,98566.02
2017-05-11T16:11:30.236Z,98565.17
2017-05-11T16:13:59.378Z,98563.78
2017-05-11T16:16:29.172Z,98562.40
2017-05-11T16:18:58.242Z,98561.34
2017-05-11T16:21:28.080Z,98553.37
2017-05-11T16:23:57.135Z,98557.38
2017-05-11T16:26:26.176Z,98552.27
2017-05-11T16:28:56.049Z,98551.48
2017-05-11T16:31:25.122Z,98550.75
2017-05-11T16:33:55.544Z,98546.70
2017-05-11T16:36:24.620Z,98543.70
2017-05-11T16:38:54.068Z,98543.80
2017-05-11T16:41:23.141Z,98538.95
2017-05-11T16:43:52.225Z,98542.85
2017-05-11T16:46:21.290Z,98538.34
2017-05-11T16:48:50.521Z,98538.63
2017-05-11T16:51:19.566Z,98535.80
2017-05-11T16:53:48.639Z,98531.75
2017-05-11T16:56:17.761Z,98533.98
2017-05-11T16:58:46.816Z,98530.42
2017-05-11T17:01:15.883Z,98521.39
2017-05-11T17:03:44.952Z,98530.72
2017-05-11T17:06:14.017Z,98526.78
2017-05-11T17:08:43.082Z,98537.00
2017-05-11T17:11:12.893Z,98528.44
2017-05-11T17:13:42.081Z,98530.88
2017-05-11T17:16:11.152Z,98531.33
2017-05-11T17:18:40.197Z,98529.53
2017-05-11T17:21:09.291Z,98526.52
2017-05-11T17:23:38.353Z,98525.96
2017-05-11T17:26:07.436Z,98526.30
2017-05-11T17:28:36.473Z,98524.11
2017-05-11T17:31:05.531Z,98525.42
2017-05-11T17:33:34.622Z,98524.44
2017-05-11T17:36:03.664Z,98522.22
2017-05-11T17:38:32.752Z,98526.38
2017-05-11T17:41:01.869Z,98529.16
2017-05-11T17:43:30.919Z,98526.14
2017-05-11T17:45:59.982Z,98528.23
2017-05-11T17:48:29.033Z,98524.09
2017-05-11T17:50:58.157Z,98524.89
2017-05-11T17:53:27.441Z,98527.92
2017-05-11T17:55:56.468Z,98532.47
2017-05-11T17:58:25.525Z,98534.98
2017-05-11T18:00:54.732Z,98535.75
2017-05-11T18:03:23.831Z,98529.89
2017-05-11T18:05:52.881Z,98531.18
2017-05-11T18:08:21.930Z,98539.81
2017-05-11T18:10:51.153Z,98529.02
2017-05-11T18:13:21.214Z,98536.94
2017-05-11T18:15:50.510Z,98534.72
2017-05-11T18:18:19.564Z,98542.19
2017-05-11T18:20:48.632Z,98538.64
2017-05-11T18:23:17.705Z,98541.64
2017-05-11T18:25:46.758Z,98545.56
2017-05-11T18:28:15.843Z,98543.75
2017-05-11T18:30:44.940Z,98547.73
2017-05-11T18:33:14.013Z,98555.36
2017-05-11T18:35:43.087Z,98555.52
2017-05-11T18:38:12.184Z,98548.28
2017-05-11T18:40:41.245Z,98550.91
2017-05-11T18:43:11.039Z,98559.27
2017-05-11T18:45:40.202Z,98561.20
2017-05-11T18:48:09.323Z,98555.56
2017-05-11T18:50:38.394Z,98569.62
2017-05-11T18:53:07.756Z,98564.78
2017-05-11T18:55:36.835Z,98565.61
2017-05-11T18:58:06.737Z,98566.05
2017-05-11T19:00:35.812Z,98567.95
2017-05-11T19:03:04.864Z,98573.38
2017-05-11T19:05:33.947Z,98572.08
2017-05-11T19:08:03.759Z,98567.86
2017-05-11T19:10:33.575Z,98572.20
2017-05-11T19:13:02.629Z,98576.98
2017-05-11T19:15:31.693Z,98579.20
2017-05-11T19:18:00.767Z,98583.02
2017-05-11T19:20:29.856Z,98583.56
2017-05-11T19:22:58.942Z,98582.84
2017-05-11T19:25:28.961Z,98593.05
2017-05-11T19:27:58.804Z,98598.63
2017-05-11T19:30:28.464Z,98599.58
2017-05-11T19:32:58.278Z,98600.18
2017-05-11T19:35:27.349Z,98602.61
2017-05-11T19:37:56.550Z,98605.23
2017-05-11T19:40:25.642Z,98613.09
2017-05-11T19:42:54.716Z,98608.88
2017-05-11T19:45:23.794Z,98609.23
2017-05-11T19:47:52.876Z,98613.13
2017-05-11T19:50:21.938Z,98618.78
2017-05-11T19:52:50.986Z,98617.67
2017-05-11T19:55:20.049Z,98623.98
2017-05-11T19:57:51.419Z,98623.72
2017-05-11T20:00:20.656Z,98624.02
2017-05-11T20:02:49.702Z,98631.86
2017-05-11T20:05:19.545Z,98635.94
2017-05-11T20:07:48.637Z,98641.60
2017-05-11T20:10:17.709Z,98646.25
2017-05-11T20:12:46.773Z,98650.45
2017-05-11T20:15:15.859Z,98660.92
2017-05-11T20:17:44.900Z,98659.36
2017-05-11T20:20:14.005Z,98667.79
2017-05-11T20:22:43.894Z,98666.75
2017-05-11T20:25:13.724Z,98675.62
2017-05-11T20:27:42.808Z,98679.06
2017-05-11T20:30:11.872Z,98678.39
2017-05-11T20:32:40.949Z,98687.91
2017-05-11T20:35:10.051Z,98680.98
2017-05-11T20:37:39.111Z,98682.62
2017-05-11T20:40:08.590Z,98685.15
2017-05-11T20:42:37.656Z,98686.19
2017-05-11T20:45:06.709Z,98686.80
2017-05-11T20:47:35.814Z,98682.09
2017-05-11T20:50:04.873Z,98687.53
2017-05-11T20:52:34.686Z,98692.05
2017-05-11T20:55:04.485Z,98694.29
2017-05-11T20:57:34.320Z,98694.72
2017-05-11T21:00:03.381Z,98691.97
2017-05-11T21:02:32.452Z,98696.19
2017-05-11T21:05:01.512Z,98702.20
2017-05-11T21:07:30.590Z,98701.87
2017-05-11T21:10:00.381Z,98701.21
2017-05-11T21:12:30.185Z,98703.48
2017-05-11T21:14:59.579Z,98698.56
2017-05-11T21:17:28.632Z,98701.89
2017-05-11T21:19:57.713Z,98695.08
2017-05-11T21:22:26.781Z,98708.47
2017-05-11T21:24:55.840Z,98703.13
2017-05-11T21:27:24.913Z,98699.98
2017-05-11T21:29:53.967Z,98702.32
2017-05-11T21:32:23.024Z,98703.38
2017-05-11T21:34:52.608Z,98709.17
2017-05-11T21:37:21.802Z,98708.22
2017-05-11T21:39:51.001Z,98711.16
2017-05-11T21:42:20.330Z,98708.73
2017-05-11T21:44:49.616Z,98718.67
2017-05-11T21:47:18.920Z,98716.88
2017-05-11T21:49:48.224Z,98716.66
2017-05-11T21:52:17.264Z,98724.93
2017-05-11T21:54:47.072Z,98724.55
2017-05-11T21:57:16.444Z,98716.70
2017-05-11T21:59:45.476Z,98723.94
2017-05-11T22:02:15.262Z,98721.99
2017-05-11T22:04:44.344Z,98726.34
2017-05-11T22:07:13.422Z,98732.14
2017-05-11T22:09:42.484Z,98730.80
2017-05-11T22:12:12.285Z,98735.28
2017-05-11T22:14:42.089Z,98738.61
2017-05-11T22:17:11.155Z,98743.37
2017-05-11T22:19:40.187Z,98743.80
2017-05-11T22:22:09.989Z,98742.46
2017-05-11T22:24:39.360Z,98742.85
2017-05-11T22:27:08.440Z,98752.95
2017-05-11T22:29:37.547Z,98756.66
2017-05-11T22:32:06.593Z,98758.25
2017-05-11T22:34:36.451Z,98763.19
2017-05-11T22:37:06.212Z,98765.45
2017-05-11T22:39:36.021Z,98767.12
2017-05-11T22:42:05.110Z,98775.48
2017-05-11T22:44:34.191Z,98777.86
2017-05-11T22:47:03.247Z,98777.67
2017-05-11T22:49:32.296Z,98781.42
2017-05-11T22:52:01.336Z,98782.86
2017-05-11T22:54:30.652Z,98782.89
2017-05-11T22:56:59.733Z,98782.39
2017-05-11T22:59:29.017Z,98790.87
2017-05-11T23:01:58.074Z,98794.43
2017-05-11T23:04:27.122Z,98792.48
2017-05-11T23:06:56.194Z,98800.54
2017-05-11T23:09:25.984Z,98800.56
2017-05-11T23:11:55.041Z,98801.49
2017-05-11T23:14:24.318Z,98800.18
2017-05-11T23:16:53.385Z,98805.86
2017-05-11T23:19:23.182Z,98805.84
2017-05-11T23:21:52.268Z,98808.56
2017-05-11T23:24:21.323Z,98807.60
2017-05-11T23:26:50.937Z,98804.70
2017-05-11T23:29:19.987Z,98805.57
2017-05-11T23:31:50.177Z,98806.98
2017-05-11T23:34:19.241Z,98802.52
2017-05-11T23:36:48.281Z,98798.23
2017-05-11T23:39:17.339Z,98800.45
2017-05-11T23:41:46.413Z,98794.49
2017-05-11T23:44:15.453Z,98795.30
2017-05-11T23:46:44.541Z,98799.30
2017-05-11T23:49:13.597Z,98804.83
2017-05-11T23:51:42.801Z,98801.15
2017-05-11T23:54:11.846Z,98794.92
2017-05-11T23:56:40.901Z,98803.22
2017-05-11T23:59:09.974Z,98801.30
